sensor_id;sensor_type;location;lat;lon;timestamp;P1;durP1;ratioP1;P2;durP2;ratioP2
34317;SDS011;20582;52.196;20.952;2023-05-21T00:01:18;9.75;;;5.63;;
34317;SDS011;20582;52.196;20.952;2023-05-21T00:03:43;11.43;;;5.72;;
34317;SDS011;20582;52.196;20.952;2023-05-21T00:06:10;10.88;;;5.28;;
34317;SDS011;20582;52.196;20.952;2023-05-21T00:08:37;8.77;;;5.43;;
34317;SDS011;20582;52.196;20.952;2023-05-21T00:11:04;10.27;;;5.47;;
34317;SDS011;20582;52.196;20.952;2023-05-21T00:13:30;13.20;;;6.30;;
34317;SDS011;20582;52.196;20.952;2023-05-21T00:15:56;10.23;;;5.75;;
34317;SDS011;20582;52.196;20.952;2023-05-21T00:18:22;10.00;;;5.35;;
34317;SDS011;20582;52.196;20.952;2023-05-21T00:20:49;12.40;;;5.80;;
34317;SDS011;20582;52.196;20.952;2023-05-21T00:23:15;9.98;;;5.80;;
34317;SDS011;20582;52.196;20.952;2023-05-21T00:25:42;11.55;;;5.63;;
34317;SDS011;20582;52.196;20.952;2023-05-21T00:28:09;11.23;;;5.55;;
34317;SDS011;20582;52.196;20.952;2023-05-21T00:30:35;11.18;;;6.03;;
34317;SDS011;20582;52.196;20.952;2023-05-21T00:33:01;11.30;;;5.70;;
34317;SDS011;20582;52.196;20.952;2023-05-21T00:35:28;14.18;;;5.75;;
34317;SDS011;20582;52.196;20.952;2023-05-21T00:37:54;13.40;;;6.22;;
34317;SDS011;20582;52.196;20.952;2023-05-21T00:40:20;12.30;;;6.00;;
34317;SDS011;20582;52.196;20.952;2023-05-21T00:42:46;11.38;;;5.95;;
34317;SDS011;20582;52.196;20.952;2023-05-21T00:45:12;14.70;;;5.63;;
34317;SDS011;20582;52.196;20.952;2023-05-21T00:47:39;11.23;;;5.53;;
34317;SDS011;20582;52.196;20.952;2023-05-21T00:50:06;10.38;;;5.18;;
34317;SDS011;20582;52.196;20.952;2023-05-21T00:52:33;13.40;;;5.45;;
34317;SDS011;20582;52.196;20.952;2023-05-21T00:55:06;10.10;;;5.82;;
34317;SDS011;20582;52.196;20.952;2023-05-21T00:57:32;11.15;;;5.70;;
34317;SDS011;20582;52.196;20.952;2023-05-21T01:00:01;14.98;;;5.60;;
34317;SDS011;20582;52.196;20.952;2023-05-21T01:02:28;8.80;;;5.03;;
34317;SDS011;20582;52.196;20.952;2023-05-21T01:04:58;13.43;;;4.68;;
34317;SDS011;20582;52.196;20.952;2023-05-21T01:07:24;10.95;;;5.40;;
34317;SDS011;20582;52.196;20.952;2023-05-21T01:09:50;11.43;;;5.38;;
34317;SDS011;20582;52.196;20.952;2023-05-21T01:12:18;10.00;;;5.10;;
34317;SDS011;20582;52.196;20.952;2023-05-21T01:14:44;8.57;;;4.97;;
34317;SDS011;20582;52.196;20.952;2023-05-21T01:17:10;12.30;;;4.90;;
34317;SDS011;20582;52.196;20.952;2023-05-21T01:19:37;10.75;;;5.03;;
34317;SDS011;20582;52.196;20.952;2023-05-21T01:22:03;10.85;;;5.15;;
34317;SDS011;20582;52.196;20.952;2023-05-21T01:24:30;15.05;;;5.00;;
34317;SDS011;20582;52.196;20.952;2023-05-21T01:26:56;11.85;;;5.07;;
34317;SDS011;20582;52.196;20.952;2023-05-21T01:29:22;11.65;;;5.20;;
34317;SDS011;20582;52.196;20.952;2023-05-21T01:34:20;16.02;;;5.63;;
34317;SDS011;20582;52.196;20.952;2023-05-21T01:36:49;9.00;;;4.90;;
34317;SDS011;20582;52.196;20.952;2023-05-21T01:39:20;15.25;;;5.10;;
34317;SDS011;20582;52.196;20.952;2023-05-21T01:41:48;11.23;;;5.10;;
34317;SDS011;20582;52.196;20.952;2023-05-21T01:44:16;9.15;;;4.88;;
34317;SDS011;20582;52.196;20.952;2023-05-21T01:46:43;10.77;;;4.28;;
34317;SDS011;20582;52.196;20.952;2023-05-21T01:49:09;11.15;;;4.93;;
34317;SDS011;20582;52.196;20.952;2023-05-21T01:51:36;8.57;;;4.68;;
34317;SDS011;20582;52.196;20.952;2023-05-21T01:54:02;9.65;;;4.57;;
34317;SDS011;20582;52.196;20.952;2023-05-21T01:56:28;11.27;;;4.70;;
34317;SDS011;20582;52.196;20.952;2023-05-21T01:58:57;11.38;;;5.20;;
34317;SDS011;20582;52.196;20.952;2023-05-21T02:01:23;10.35;;;4.50;;
34317;SDS011;20582;52.196;20.952;2023-05-21T02:03:50;8.23;;;4.68;;
34317;SDS011;20582;52.196;20.952;2023-05-21T02:06:16;10.25;;;4.72;;
34317;SDS011;20582;52.196;20.952;2023-05-21T02:08:42;11.43;;;4.32;;
34317;SDS011;20582;52.196;20.952;2023-05-21T02:11:09;10.10;;;4.45;;
34317;SDS011;20582;52.196;20.952;2023-05-21T02:13:35;10.68;;;4.57;;
34317;SDS011;20582;52.196;20.952;2023-05-21T02:18:36;10.65;;;4.55;;
34317;SDS011;20582;52.196;20.952;2023-05-21T02:21:02;8.98;;;4.45;;
34317;SDS011;20582;52.196;20.952;2023-05-21T02:23:28;10.65;;;4.35;;
34317;SDS011;20582;52.196;20.952;2023-05-21T02:25:54;11.50;;;4.45;;
34317;SDS011;20582;52.196;20.952;2023-05-21T02:28:20;8.45;;;4.22;;
34317;SDS011;20582;52.196;20.952;2023-05-21T02:30:46;12.73;;;4.72;;
34317;SDS011;20582;52.196;20.952;2023-05-21T02:33:13;12.13;;;4.68;;
34317;SDS011;20582;52.196;20.952;2023-05-21T02:35:39;10.88;;;5.00;;
34317;SDS011;20582;52.196;20.952;2023-05-21T02:38:05;8.65;;;4.10;;
34317;SDS011;20582;52.196;20.952;2023-05-21T02:40:33;11.23;;;4.93;;
34317;SDS011;20582;52.196;20.952;2023-05-21T02:42:59;8.43;;;4.40;;
34317;SDS011;20582;52.196;20.952;2023-05-21T02:45:25;7.72;;;4.72;;
34317;SDS011;20582;52.196;20.952;2023-05-21T02:47:51;11.02;;;4.60;;
34317;SDS011;20582;52.196;20.952;2023-05-21T02:50:17;10.23;;;4.38;;
34317;SDS011;20582;52.196;20.952;2023-05-21T02:52:43;12.13;;;4.90;;
34317;SDS011;20582;52.196;20.952;2023-05-21T02:55:09;9.30;;;4.80;;
34317;SDS011;20582;52.196;20.952;2023-05-21T02:57:35;10.30;;;4.65;;
34317;SDS011;20582;52.196;20.952;2023-05-21T03:00:01;7.93;;;4.57;;
34317;SDS011;20582;52.196;20.952;2023-05-21T03:02:27;9.40;;;4.90;;
34317;SDS011;20582;52.196;20.952;2023-05-21T03:04:54;11.13;;;4.85;;
34317;SDS011;20582;52.196;20.952;2023-05-21T03:07:20;9.20;;;4.68;;
34317;SDS011;20582;52.196;20.952;2023-05-21T03:09:46;8.52;;;4.53;;
34317;SDS011;20582;52.196;20.952;2023-05-21T03:12:12;11.00;;;5.15;;
34317;SDS011;20582;52.196;20.952;2023-05-21T03:14:38;10.85;;;4.78;;
34317;SDS011;20582;52.196;20.952;2023-05-21T03:17:06;11.77;;;5.10;;
34317;SDS011;20582;52.196;20.952;2023-05-21T03:19:32;11.32;;;4.85;;
34317;SDS011;20582;52.196;20.952;2023-05-21T03:22:00;10.93;;;4.72;;
34317;SDS011;20582;52.196;20.952;2023-05-21T03:24:26;11.32;;;5.03;;
34317;SDS011;20582;52.196;20.952;2023-05-21T03:26:54;10.00;;;5.03;;
34317;SDS011;20582;52.196;20.952;2023-05-21T03:29:20;10.82;;;5.25;;
34317;SDS011;20582;52.196;20.952;2023-05-21T03:31:46;10.95;;;4.47;;
34317;SDS011;20582;52.196;20.952;2023-05-21T03:34:12;10.68;;;4.90;;
34317;SDS011;20582;52.196;20.952;2023-05-21T03:36:38;8.30;;;4.80;;
34317;SDS011;20582;52.196;20.952;2023-05-21T03:39:04;11.85;;;5.18;;
34317;SDS011;20582;52.196;20.952;2023-05-21T03:41:30;10.60;;;4.90;;
34317;SDS011;20582;52.196;20.952;2023-05-21T03:43:56;8.95;;;5.03;;
34317;SDS011;20582;52.196;20.952;2023-05-21T03:46:22;9.98;;;4.68;;
34317;SDS011;20582;52.196;20.952;2023-05-21T03:48:48;9.48;;;4.55;;
34317;SDS011;20582;52.196;20.952;2023-05-21T03:51:15;9.13;;;4.80;;
34317;SDS011;20582;52.196;20.952;2023-05-21T03:53:41;10.30;;;4.70;;
34317;SDS011;20582;52.196;20.952;2023-05-21T03:56:07;13.23;;;4.95;;
34317;SDS011;20582;52.196;20.952;2023-05-21T03:58:33;8.13;;;4.85;;
34317;SDS011;20582;52.196;20.952;2023-05-21T04:00:59;9.32;;;4.45;;
34317;SDS011;20582;52.196;20.952;2023-05-21T04:03:26;9.38;;;4.38;;
34317;SDS011;20582;52.196;20.952;2023-05-21T04:05:52;10.32;;;4.20;;
34317;SDS011;20582;52.196;20.952;2023-05-21T04:08:18;10.80;;;4.65;;
34317;SDS011;20582;52.196;20.952;2023-05-21T04:10:45;11.30;;;4.72;;
34317;SDS011;20582;52.196;20.952;2023-05-21T04:13:10;9.85;;;4.55;;
34317;SDS011;20582;52.196;20.952;2023-05-21T04:15:36;11.23;;;4.22;;
34317;SDS011;20582;52.196;20.952;2023-05-21T04:18:03;10.55;;;4.20;;
34317;SDS011;20582;52.196;20.952;2023-05-21T04:20:29;9.60;;;4.82;;
34317;SDS011;20582;52.196;20.952;2023-05-21T04:22:55;9.20;;;4.38;;
34317;SDS011;20582;52.196;20.952;2023-05-21T04:25:21;10.82;;;4.57;;
34317;SDS011;20582;52.196;20.952;2023-05-21T04:27:47;7.80;;;4.22;;
34317;SDS011;20582;52.196;20.952;2023-05-21T04:30:14;10.25;;;4.50;;
34317;SDS011;20582;52.196;20.952;2023-05-21T04:32:40;8.73;;;4.30;;
34317;SDS011;20582;52.196;20.952;2023-05-21T04:35:09;9.55;;;4.40;;
34317;SDS011;20582;52.196;20.952;2023-05-21T04:37:36;10.48;;;4.55;;
34317;SDS011;20582;52.196;20.952;2023-05-21T04:40:06;11.07;;;4.05;;
34317;SDS011;20582;52.196;20.952;2023-05-21T04:42:33;9.15;;;4.25;;
34317;SDS011;20582;52.196;20.952;2023-05-21T04:44:59;8.10;;;4.20;;
34317;SDS011;20582;52.196;20.952;2023-05-21T04:47:25;9.27;;;4.35;;
34317;SDS011;20582;52.196;20.952;2023-05-21T04:49:54;10.57;;;4.28;;
34317;SDS011;20582;52.196;20.952;2023-05-21T04:52:20;9.15;;;4.50;;
34317;SDS011;20582;52.196;20.952;2023-05-21T04:54:48;8.57;;;4.07;;
34317;SDS011;20582;52.196;20.952;2023-05-21T04:57:14;7.97;;;3.83;;
34317;SDS011;20582;52.196;20.952;2023-05-21T04:59:42;10.10;;;4.38;;
34317;SDS011;20582;52.196;20.952;2023-05-21T05:02:08;10.15;;;4.53;;
34317;SDS011;20582;52.196;20.952;2023-05-21T05:04:34;8.73;;;3.97;;
34317;SDS011;20582;52.196;20.952;2023-05-21T05:07:00;8.30;;;4.32;;
34317;SDS011;20582;52.196;20.952;2023-05-21T05:09:26;8.52;;;3.72;;
34317;SDS011;20582;52.196;20.952;2023-05-21T05:11:54;8.18;;;3.40;;
34317;SDS011;20582;52.196;20.952;2023-05-21T05:14:20;7.80;;;3.90;;
34317;SDS011;20582;52.196;20.952;2023-05-21T05:16:45;8.57;;;4.00;;
34317;SDS011;20582;52.196;20.952;2023-05-21T05:19:14;9.57;;;3.75;;
34317;SDS011;20582;52.196;20.952;2023-05-21T05:21:40;10.38;;;4.00;;
34317;SDS011;20582;52.196;20.952;2023-05-21T05:24:06;7.47;;;3.63;;
34317;SDS011;20582;52.196;20.952;2023-05-21T05:26:32;10.32;;;3.83;;
34317;SDS011;20582;52.196;20.952;2023-05-21T05:28:58;7.30;;;3.83;;
34317;SDS011;20582;52.196;20.952;2023-05-21T05:31:24;9.05;;;3.70;;
34317;SDS011;20582;52.196;20.952;2023-05-21T05:33:51;9.07;;;4.15;;
34317;SDS011;20582;52.196;20.952;2023-05-21T05:36:17;8.05;;;3.83;;
34317;SDS011;20582;52.196;20.952;2023-05-21T05:38:42;7.40;;;3.63;;
34317;SDS011;20582;52.196;20.952;2023-05-21T05:41:08;9.82;;;3.78;;
34317;SDS011;20582;52.196;20.952;2023-05-21T05:43:34;10.90;;;3.78;;
34317;SDS011;20582;52.196;20.952;2023-05-21T05:46:01;9.43;;;4.00;;
34317;SDS011;20582;52.196;20.952;2023-05-21T05:48:27;7.72;;;3.67;;
34317;SDS011;20582;52.196;20.952;2023-05-21T05:50:53;16.10;;;3.88;;
34317;SDS011;20582;52.196;20.952;2023-05-21T05:53:19;9.67;;;3.53;;
34317;SDS011;20582;52.196;20.952;2023-05-21T05:55:45;7.47;;;3.47;;
34317;SDS011;20582;52.196;20.952;2023-05-21T05:58:11;8.18;;;3.33;;
34317;SDS011;20582;52.196;20.952;2023-05-21T06:00:38;8.98;;;3.80;;
34317;SDS011;20582;52.196;20.952;2023-05-21T06:03:04;9.75;;;3.42;;
34317;SDS011;20582;52.196;20.952;2023-05-21T06:05:29;8.80;;;3.35;;
34317;SDS011;20582;52.196;20.952;2023-05-21T06:07:55;6.75;;;3.10;;
34317;SDS011;20582;52.196;20.952;2023-05-21T06:10:21;8.27;;;3.53;;
34317;SDS011;20582;52.196;20.952;2023-05-21T06:12:47;7.25;;;3.30;;
34317;SDS011;20582;52.196;20.952;2023-05-21T06:15:13;8.85;;;3.75;;
34317;SDS011;20582;52.196;20.952;2023-05-21T06:17:40;7.55;;;3.17;;
34317;SDS011;20582;52.196;20.952;2023-05-21T06:20:09;6.32;;;3.10;;
34317;SDS011;20582;52.196;20.952;2023-05-21T06:22:36;8.27;;;3.55;;
34317;SDS011;20582;52.196;20.952;2023-05-21T06:25:02;5.80;;;3.03;;
34317;SDS011;20582;52.196;20.952;2023-05-21T06:27:28;6.20;;;3.17;;
34317;SDS011;20582;52.196;20.952;2023-05-21T06:29:54;8.38;;;3.50;;
34317;SDS011;20582;52.196;20.952;2023-05-21T06:32:21;6.60;;;3.17;;
34317;SDS011;20582;52.196;20.952;2023-05-21T06:34:47;8.30;;;3.10;;
34317;SDS011;20582;52.196;20.952;2023-05-21T06:37:17;11.00;;;3.40;;
34317;SDS011;20582;52.196;20.952;2023-05-21T06:39:44;9.50;;;3.03;;
34317;SDS011;20582;52.196;20.952;2023-05-21T06:42:10;6.93;;;3.10;;
34317;SDS011;20582;52.196;20.952;2023-05-21T06:44:36;7.75;;;3.20;;
34317;SDS011;20582;52.196;20.952;2023-05-21T06:47:02;7.22;;;3.10;;
34317;SDS011;20582;52.196;20.952;2023-05-21T06:49:28;9.85;;;3.28;;
34317;SDS011;20582;52.196;20.952;2023-05-21T06:51:54;7.30;;;2.90;;
34317;SDS011;20582;52.196;20.952;2023-05-21T06:54:20;9.32;;;3.45;;
34317;SDS011;20582;52.196;20.952;2023-05-21T06:56:46;8.73;;;3.30;;
34317;SDS011;20582;52.196;20.952;2023-05-21T06:59:12;11.52;;;3.33;;
34317;SDS011;20582;52.196;20.952;2023-05-21T07:01:38;8.18;;;3.38;;
34317;SDS011;20582;52.196;20.952;2023-05-21T07:04:06;9.40;;;3.20;;
34317;SDS011;20582;52.196;20.952;2023-05-21T07:06:32;8.43;;;3.20;;
34317;SDS011;20582;52.196;20.952;2023-05-21T07:08:59;5.53;;;2.88;;
34317;SDS011;20582;52.196;20.952;2023-05-21T07:11:25;5.18;;;2.80;;
34317;SDS011;20582;52.196;20.952;2023-05-21T07:13:53;6.88;;;2.90;;
34317;SDS011;20582;52.196;20.952;2023-05-21T07:16:19;7.03;;;3.28;;
34317;SDS011;20582;52.196;20.952;2023-05-21T07:18:45;8.95;;;3.00;;
34317;SDS011;20582;52.196;20.952;2023-05-21T07:21:11;8.73;;;3.13;;
34317;SDS011;20582;52.196;20.952;2023-05-21T07:23:37;9.10;;;3.15;;
34317;SDS011;20582;52.196;20.952;2023-05-21T07:26:03;5.97;;;2.97;;
34317;SDS011;20582;52.196;20.952;2023-05-21T07:28:29;5.40;;;2.80;;
34317;SDS011;20582;52.196;20.952;2023-05-21T07:30:55;7.65;;;3.00;;
34317;SDS011;20582;52.196;20.952;2023-05-21T07:33:21;8.68;;;2.90;;
34317;SDS011;20582;52.196;20.952;2023-05-21T07:35:47;9.23;;;2.90;;
34317;SDS011;20582;52.196;20.952;2023-05-21T07:38:13;8.85;;;3.30;;
34317;SDS011;20582;52.196;20.952;2023-05-21T07:40:39;5.93;;;3.13;;
34317;SDS011;20582;52.196;20.952;2023-05-21T07:43:05;9.73;;;3.13;;
34317;SDS011;20582;52.196;20.952;2023-05-21T07:45:31;6.30;;;2.97;;
34317;SDS011;20582;52.196;20.952;2023-05-21T07:47:57;9.38;;;2.88;;
34317;SDS011;20582;52.196;20.952;2023-05-21T07:50:23;7.15;;;2.95;;
34317;SDS011;20582;52.196;20.952;2023-05-21T07:52:50;9.32;;;3.30;;
34317;SDS011;20582;52.196;20.952;2023-05-21T07:55:16;8.25;;;2.90;;
34317;SDS011;20582;52.196;20.952;2023-05-21T07:57:42;5.47;;;2.85;;
34317;SDS011;20582;52.196;20.952;2023-05-21T08:00:09;5.85;;;2.53;;
34317;SDS011;20582;52.196;20.952;2023-05-21T08:02:38;5.32;;;2.90;;
34317;SDS011;20582;52.196;20.952;2023-05-21T08:05:04;5.82;;;2.55;;
34317;SDS011;20582;52.196;20.952;2023-05-21T08:07:30;10.00;;;2.80;;
34317;SDS011;20582;52.196;20.952;2023-05-21T08:09:56;10.93;;;3.00;;
34317;SDS011;20582;52.196;20.952;2023-05-21T08:12:23;10.15;;;2.67;;
34317;SDS011;20582;52.196;20.952;2023-05-21T08:14:48;5.25;;;2.45;;
34317;SDS011;20582;52.196;20.952;2023-05-21T08:17:15;10.90;;;3.20;;
34317;SDS011;20582;52.196;20.952;2023-05-21T08:19:41;7.82;;;2.80;;
34317;SDS011;20582;52.196;20.952;2023-05-21T08:22:07;3.90;;;2.65;;
34317;SDS011;20582;52.196;20.952;2023-05-21T08:24:33;6.22;;;2.58;;
34317;SDS011;20582;52.196;20.952;2023-05-21T08:26:59;6.82;;;2.78;;
34317;SDS011;20582;52.196;20.952;2023-05-21T08:29:25;6.05;;;2.92;;
34317;SDS011;20582;52.196;20.952;2023-05-21T08:31:51;8.68;;;2.85;;
34317;SDS011;20582;52.196;20.952;2023-05-21T08:34:17;4.82;;;2.72;;
34317;SDS011;20582;52.196;20.952;2023-05-21T08:36:43;7.35;;;2.85;;
34317;SDS011;20582;52.196;20.952;2023-05-21T08:39:10;10.43;;;2.80;;
34317;SDS011;20582;52.196;20.952;2023-05-21T08:41:39;6.07;;;2.80;;
34317;SDS011;20582;52.196;20.952;2023-05-21T08:44:10;5.22;;;2.67;;
34317;SDS011;20582;52.196;20.952;2023-05-21T08:46:38;6.28;;;2.50;;
34317;SDS011;20582;52.196;20.952;2023-05-21T08:49:05;10.30;;;3.22;;
34317;SDS011;20582;52.196;20.952;2023-05-21T08:51:33;10.13;;;3.20;;
34317;SDS011;20582;52.196;20.952;2023-05-21T08:53:59;7.57;;;2.70;;
34317;SDS011;20582;52.196;20.952;2023-05-21T08:56:26;6.53;;;3.00;;
34317;SDS011;20582;52.196;20.952;2023-05-21T08:58:52;7.60;;;2.85;;
34317;SDS011;20582;52.196;20.952;2023-05-21T09:01:18;9.13;;;2.88;;
34317;SDS011;20582;52.196;20.952;2023-05-21T09:03:45;5.82;;;3.08;;
34317;SDS011;20582;52.196;20.952;2023-05-21T09:06:12;15.27;;;3.40;;
34317;SDS011;20582;52.196;20.952;2023-05-21T09:08:40;23.35;;;4.07;;
34317;SDS011;20582;52.196;20.952;2023-05-21T09:11:08;7.57;;;2.95;;
34317;SDS011;20582;52.196;20.952;2023-05-21T09:13:34;5.35;;;2.85;;
34317;SDS011;20582;52.196;20.952;2023-05-21T09:16:01;7.25;;;3.13;;
34317;SDS011;20582;52.196;20.952;2023-05-21T09:18:27;4.18;;;2.88;;
34317;SDS011;20582;52.196;20.952;2023-05-21T09:20:53;7.22;;;2.78;;
34317;SDS011;20582;52.196;20.952;2023-05-21T09:23:20;8.07;;;2.95;;
34317;SDS011;20582;52.196;20.952;2023-05-21T09:25:46;5.90;;;3.13;;
34317;SDS011;20582;52.196;20.952;2023-05-21T09:28:13;6.78;;;2.80;;
34317;SDS011;20582;52.196;20.952;2023-05-21T09:30:46;5.90;;;3.13;;
34317;SDS011;20582;52.196;20.952;2023-05-21T09:33:22;7.53;;;3.33;;
34317;SDS011;20582;52.196;20.952;2023-05-21T09:35:49;6.20;;;3.45;;
34317;SDS011;20582;52.196;20.952;2023-05-21T09:38:15;6.25;;;3.13;;
34317;SDS011;20582;52.196;20.952;2023-05-21T09:40:44;5.85;;;3.45;;
34317;SDS011;20582;52.196;20.952;2023-05-21T09:43:13;5.27;;;3.10;;
34317;SDS011;20582;52.196;20.952;2023-05-21T09:45:53;6.60;;;3.35;;
34317;SDS011;20582;52.196;20.952;2023-05-21T09:48:32;6.05;;;3.78;;
34317;SDS011;20582;52.196;20.952;2023-05-21T09:51:17;7.07;;;3.70;;
34317;SDS011;20582;52.196;20.952;2023-05-21T09:53:54;7.75;;;3.75;;
34317;SDS011;20582;52.196;20.952;2023-05-21T09:56:25;5.38;;;3.17;;
34317;SDS011;20582;52.196;20.952;2023-05-21T09:58:56;10.27;;;3.72;;
34317;SDS011;20582;52.196;20.952;2023-05-21T10:01:24;6.25;;;3.45;;
34317;SDS011;20582;52.196;20.952;2023-05-21T10:03:52;6.00;;;3.38;;
34317;SDS011;20582;52.196;20.952;2023-05-21T10:06:20;7.00;;;3.60;;
34317;SDS011;20582;52.196;20.952;2023-05-21T10:08:47;5.50;;;3.33;;
34317;SDS011;20582;52.196;20.952;2023-05-21T10:11:15;8.05;;;3.83;;
34317;SDS011;20582;52.196;20.952;2023-05-21T10:13:43;7.85;;;3.47;;
34317;SDS011;20582;52.196;20.952;2023-05-21T10:16:10;4.25;;;3.15;;
34317;SDS011;20582;52.196;20.952;2023-05-21T10:18:36;6.10;;;3.25;;
34317;SDS011;20582;52.196;20.952;2023-05-21T10:21:03;6.20;;;3.75;;
34317;SDS011;20582;52.196;20.952;2023-05-21T10:23:31;5.10;;;3.47;;
34317;SDS011;20582;52.196;20.952;2023-05-21T10:25:57;6.47;;;3.40;;
34317;SDS011;20582;52.196;20.952;2023-05-21T10:28:24;6.85;;;3.55;;
34317;SDS011;20582;52.196;20.952;2023-05-21T10:30:50;4.88;;;3.50;;
34317;SDS011;20582;52.196;20.952;2023-05-21T10:33:18;7.72;;;3.58;;
34317;SDS011;20582;52.196;20.952;2023-05-21T10:35:45;7.68;;;3.70;;
34317;SDS011;20582;52.196;20.952;2023-05-21T10:38:12;8.88;;;3.47;;
34317;SDS011;20582;52.196;20.952;2023-05-21T10:40:38;5.82;;;3.65;;
34317;SDS011;20582;52.196;20.952;2023-05-21T10:45:38;6.75;;;3.60;;
34317;SDS011;20582;52.196;20.952;2023-05-21T10:53:19;4.45;;;3.60;;
34317;SDS011;20582;52.196;20.952;2023-05-21T10:55:52;4.60;;;3.80;;
34317;SDS011;20582;52.196;20.952;2023-05-21T11:00:44;5.93;;;3.78;;
34317;SDS011;20582;52.196;20.952;2023-05-21T11:03:11;6.22;;;4.15;;
34317;SDS011;20582;52.196;20.952;2023-05-21T11:08:39;5.57;;;3.60;;
34317;SDS011;20582;52.196;20.952;2023-05-21T11:11:00;5.28;;;3.40;;
34317;SDS011;20582;52.196;20.952;2023-05-21T11:13:27;7.47;;;3.67;;
34317;SDS011;20582;52.196;20.952;2023-05-21T11:26:18;6.03;;;3.08;;
34317;SDS011;20582;52.196;20.952;2023-05-21T11:28:45;5.68;;;3.33;;
34317;SDS011;20582;52.196;20.952;2023-05-21T11:31:24;5.85;;;3.30;;
34317;SDS011;20582;52.196;20.952;2023-05-21T11:36:43;5.53;;;3.35;;
34317;SDS011;20582;52.196;20.952;2023-05-21T11:39:16;5.65;;;3.35;;
34317;SDS011;20582;52.196;20.952;2023-05-21T11:41:56;7.30;;;3.63;;
34317;SDS011;20582;52.196;20.952;2023-05-21T11:44:38;7.45;;;3.63;;
34317;SDS011;20582;52.196;20.952;2023-05-21T11:47:04;6.07;;;3.00;;
34317;SDS011;20582;52.196;20.952;2023-05-21T11:49:30;6.30;;;3.42;;
34317;SDS011;20582;52.196;20.952;2023-05-21T11:51:58;5.75;;;3.67;;
34317;SDS011;20582;52.196;20.952;2023-05-21T11:54:24;7.50;;;3.55;;
34317;SDS011;20582;52.196;20.952;2023-05-21T11:56:50;7.57;;;3.80;;
34317;SDS011;20582;52.196;20.952;2023-05-21T11:59:17;6.28;;;3.38;;
34317;SDS011;20582;52.196;20.952;2023-05-21T12:01:43;7.65;;;3.38;;
34317;SDS011;20582;52.196;20.952;2023-05-21T12:04:09;4.93;;;3.25;;
34317;SDS011;20582;52.196;20.952;2023-05-21T12:06:41;6.78;;;3.17;;
34317;SDS011;20582;52.196;20.952;2023-05-21T12:09:10;8.10;;;3.53;;
34317;SDS011;20582;52.196;20.952;2023-05-21T12:11:37;6.90;;;3.03;;
34317;SDS011;20582;52.196;20.952;2023-05-21T12:14:07;5.28;;;3.28;;
34317;SDS011;20582;52.196;20.952;2023-05-21T12:16:33;7.20;;;3.20;;
34317;SDS011;20582;52.196;20.952;2023-05-21T12:19:00;7.25;;;3.20;;
34317;SDS011;20582;52.196;20.952;2023-05-21T12:21:27;4.68;;;3.20;;
34317;SDS011;20582;52.196;20.952;2023-05-21T12:23:53;4.78;;;3.05;;
34317;SDS011;20582;52.196;20.952;2023-05-21T12:26:19;5.20;;;3.17;;
34317;SDS011;20582;52.196;20.952;2023-05-21T12:28:45;7.05;;;3.20;;
34317;SDS011;20582;52.196;20.952;2023-05-21T12:31:15;6.93;;;3.00;;
34317;SDS011;20582;52.196;20.952;2023-05-21T12:33:43;4.35;;;2.90;;
34317;SDS011;20582;52.196;20.952;2023-05-21T12:36:19;6.03;;;2.80;;
34317;SDS011;20582;52.196;20.952;2023-05-21T12:38:46;6.25;;;2.92;;
34317;SDS011;20582;52.196;20.952;2023-05-21T12:41:12;5.75;;;2.83;;
34317;SDS011;20582;52.196;20.952;2023-05-21T12:43:38;7.00;;;2.67;;
34317;SDS011;20582;52.196;20.952;2023-05-21T12:46:04;5.10;;;2.70;;
34317;SDS011;20582;52.196;20.952;2023-05-21T12:48:30;6.47;;;2.65;;
34317;SDS011;20582;52.196;20.952;2023-05-21T12:50:59;6.97;;;3.10;;
34317;SDS011;20582;52.196;20.952;2023-05-21T12:53:34;6.10;;;2.85;;
34317;SDS011;20582;52.196;20.952;2023-05-21T12:56:08;6.05;;;2.78;;
34317;SDS011;20582;52.196;20.952;2023-05-21T12:58:34;8.15;;;2.88;;
34317;SDS011;20582;52.196;20.952;2023-05-21T13:01:04;5.60;;;2.67;;
34317;SDS011;20582;52.196;20.952;2023-05-21T13:03:30;6.53;;;2.78;;
34317;SDS011;20582;52.196;20.952;2023-05-21T13:06:00;4.95;;;2.47;;
34317;SDS011;20582;52.196;20.952;2023-05-21T13:08:26;5.55;;;2.70;;
34317;SDS011;20582;52.196;20.952;2023-05-21T13:10:52;10.25;;;2.90;;
34317;SDS011;20582;52.196;20.952;2023-05-21T13:13:18;3.95;;;2.45;;
34317;SDS011;20582;52.196;20.952;2023-05-21T13:15:44;6.82;;;2.80;;
34317;SDS011;20582;52.196;20.952;2023-05-21T13:18:10;7.65;;;2.58;;
34317;SDS011;20582;52.196;20.952;2023-05-21T13:20:36;4.63;;;2.50;;
34317;SDS011;20582;52.196;20.952;2023-05-21T13:23:02;5.18;;;2.55;;
34317;SDS011;20582;52.196;20.952;2023-05-21T13:25:29;8.25;;;2.60;;
34317;SDS011;20582;52.196;20.952;2023-05-21T13:28:00;7.65;;;2.58;;
34317;SDS011;20582;52.196;20.952;2023-05-21T13:30:26;7.13;;;2.90;;
34317;SDS011;20582;52.196;20.952;2023-05-21T13:32:52;5.43;;;2.65;;
34317;SDS011;20582;52.196;20.952;2023-05-21T13:35:18;6.93;;;2.80;;
34317;SDS011;20582;52.196;20.952;2023-05-21T13:37:44;6.70;;;2.70;;
34317;SDS011;20582;52.196;20.952;2023-05-21T13:40:11;8.60;;;3.00;;
34317;SDS011;20582;52.196;20.952;2023-05-21T13:42:41;6.65;;;2.75;;
34317;SDS011;20582;52.196;20.952;2023-05-21T13:45:08;5.10;;;2.60;;
34317;SDS011;20582;52.196;20.952;2023-05-21T13:47:34;5.40;;;2.90;;
34317;SDS011;20582;52.196;20.952;2023-05-21T13:50:00;6.15;;;2.70;;
34317;SDS011;20582;52.196;20.952;2023-05-21T13:52:26;5.45;;;2.97;;
34317;SDS011;20582;52.196;20.952;2023-05-21T13:54:52;4.57;;;2.60;;
34317;SDS011;20582;52.196;20.952;2023-05-21T13:57:18;3.75;;;2.40;;
34317;SDS011;20582;52.196;20.952;2023-05-21T13:59:44;7.40;;;2.70;;
34317;SDS011;20582;52.196;20.952;2023-05-21T14:02:10;6.65;;;2.70;;
34317;SDS011;20582;52.196;20.952;2023-05-21T14:04:36;8.50;;;2.75;;
34317;SDS011;20582;52.196;20.952;2023-05-21T14:07:02;8.85;;;2.83;;
34317;SDS011;20582;52.196;20.952;2023-05-21T14:09:29;4.68;;;2.42;;
34317;SDS011;20582;52.196;20.952;2023-05-21T14:11:55;5.28;;;2.40;;
34317;SDS011;20582;52.196;20.952;2023-05-21T14:14:21;5.90;;;2.50;;
34317;SDS011;20582;52.196;20.952;2023-05-21T14:16:48;8.20;;;2.78;;
34317;SDS011;20582;52.196;20.952;2023-05-21T14:19:14;5.68;;;2.65;;
34317;SDS011;20582;52.196;20.952;2023-05-21T14:21:40;5.80;;;2.50;;
34317;SDS011;20582;52.196;20.952;2023-05-21T14:24:07;7.15;;;2.65;;
34317;SDS011;20582;52.196;20.952;2023-05-21T14:26:33;4.88;;;2.70;;
34317;SDS011;20582;52.196;20.952;2023-05-21T14:29:00;6.85;;;2.80;;
34317;SDS011;20582;52.196;20.952;2023-05-21T14:31:26;6.00;;;2.63;;
34317;SDS011;20582;52.196;20.952;2023-05-21T14:33:52;6.97;;;2.80;;
34317;SDS011;20582;52.196;20.952;2023-05-21T14:36:19;4.30;;;2.50;;
34317;SDS011;20582;52.196;20.952;2023-05-21T14:38:45;6.05;;;2.90;;
34317;SDS011;20582;52.196;20.952;2023-05-21T14:41:11;5.07;;;2.70;;
34317;SDS011;20582;52.196;20.952;2023-05-21T14:43:37;5.22;;;2.55;;
34317;SDS011;20582;52.196;20.952;2023-05-21T14:46:03;6.90;;;2.97;;
34317;SDS011;20582;52.196;20.952;2023-05-21T14:48:29;5.45;;;2.75;;
34317;SDS011;20582;52.196;20.952;2023-05-21T14:50:55;7.15;;;2.72;;
34317;SDS011;20582;52.196;20.952;2023-05-21T14:53:21;7.03;;;2.95;;
34317;SDS011;20582;52.196;20.952;2023-05-21T14:55:47;7.47;;;2.72;;
34317;SDS011;20582;52.196;20.952;2023-05-21T14:58:13;7.85;;;2.60;;
34317;SDS011;20582;52.196;20.952;2023-05-21T15:00:40;5.63;;;2.55;;